createdAt,value
2018-11-01T00:00:56.755Z,87.23
2018-11-01T00:03:24.446Z,87.00
2018-11-01T00:05:52.180Z,87.66
2018-11-01T00:08:20.222Z,87.92
2018-11-01T00:10:47.954Z,88.53
2018-11-01T00:13:16.612Z,88.19
2018-11-01T00:15:44.333Z,88.50
2018-11-01T00:18:12.058Z,87.92
2018-11-01T00:20:39.777Z,88.01
2018-11-01T00:23:07.518Z,87.74
2018-11-01T00:25:35.247Z,88.04
2018-11-01T00:28:02.962Z,88.25
2018-11-01T00:30:30.694Z,87.24
2018-11-01T00:32:58.398Z,86.25
2018-11-01T00:35:26.133Z,85.58
2018-11-01T00:37:53.857Z,85.13
2018-11-01T00:40:21.578Z,86.06
2018-11-01T00:42:49.323Z,86.61
2018-11-01T00:45:17.047Z,88.05
2018-11-01T00:47:44.802Z,88.76
2018-11-01T00:50:13.799Z,87.47
2018-11-01T00:52:41.945Z,87.14
2018-11-01T00:55:10.754Z,87.58
2018-11-01T00:57:38.886Z,87.86
2018-11-01T01:00:09.106Z,87.45
2018-11-01T01:02:36.817Z,88.92
2018-11-01T01:05:05.443Z,88.61
2018-11-01T01:07:33.183Z,88.28
2018-11-01T01:10:00.924Z,88.75
2018-11-01T01:12:28.687Z,89.35
2018-11-01T01:14:56.458Z,89.11
2018-11-01T01:17:24.174Z,88.29
2018-11-01T01:19:52.010Z,88.16
2018-11-01T01:22:19.745Z,88.49
2018-11-01T01:24:47.502Z,88.94
2018-11-01T01:27:15.266Z,89.56
2018-11-01T01:29:42.989Z,90.28
2018-11-01T01:32:10.794Z,90.75
2018-11-01T01:34:38.544Z,90.45
2018-11-01T01:37:06.382Z,89.23
2018-11-01T01:39:34.139Z,88.75
2018-11-01T01:42:01.861Z,89.11
2018-11-01T01:44:29.577Z,88.92
2018-11-01T01:46:57.315Z,88.65
2018-11-01T01:49:25.298Z,88.29
2018-11-01T01:51:53.028Z,88.08
2018-11-01T01:54:20.731Z,89.75
2018-11-01T01:56:53.879Z,89.45
2018-11-01T01:59:21.602Z,88.68
2018-11-01T02:01:49.318Z,87.35
2018-11-01T02:04:17.029Z,88.16
2018-11-01T02:06:44.758Z,87.48
2018-11-01T02:09:13.031Z,88.32
2018-11-01T02:11:42.263Z,87.92
2018-11-01T02:14:09.982Z,87.75
2018-11-01T02:16:37.760Z,88.68
2018-11-01T02:19:06.050Z,89.02
2018-11-01T02:21:33.818Z,90.50
2018-11-01T02:24:01.557Z,90.93
2018-11-01T02:26:29.394Z,90.59
2018-11-01T02:28:57.156Z,89.58
2018-11-01T02:31:24.994Z,87.82
2018-11-01T02:33:52.722Z,87.65
2018-11-01T02:36:20.452Z,87.83
2018-11-01T02:38:48.330Z,87.74
2018-11-01T02:41:15.987Z,87.48
2018-11-01T02:43:43.711Z,87.21
2018-11-01T02:46:11.430Z,88.25
2018-11-01T02:48:39.199Z,88.49
2018-11-01T02:51:06.954Z,88.53
2018-11-01T02:53:34.704Z,87.94
2018-11-01T02:56:02.441Z,89.62
2018-11-01T02:58:30.164Z,89.12
2018-11-01T03:00:57.902Z,89.64
2018-11-01T03:03:25.624Z,89.72
2018-11-01T03:05:53.337Z,89.47
2018-11-01T03:08:21.095Z,89.65
2018-11-01T03:10:48.806Z,90.15
2018-11-01T03:13:16.523Z,89.75
2018-11-01T03:15:44.235Z,90.86
2018-11-01T03:18:11.967Z,90.95
2018-11-01T03:20:39.703Z,89.88
2018-11-01T03:23:07.443Z,90.34
2018-11-01T03:25:35.257Z,89.57
2018-11-01T03:28:02.992Z,88.53
2018-11-01T03:30:30.721Z,88.28
2018-11-01T03:32:58.455Z,88.85
2018-11-01T03:35:26.170Z,89.39
2018-11-01T03:37:53.898Z,90.00
2018-11-01T03:40:21.620Z,91.39
2018-11-01T03:42:49.341Z,91.41
2018-11-01T03:45:17.075Z,90.14
2018-11-01T03:47:44.830Z,89.57
2018-11-01T03:50:12.579Z,89.55
2018-11-01T03:52:40.318Z,89.93
2018-11-01T03:55:09.415Z,91.03
2018-11-01T03:57:37.140Z,90.57
2018-11-01T04:00:07.925Z,90.77
2018-11-01T04:02:35.652Z,90.24
2018-11-01T04:05:03.483Z,89.44
2018-11-01T04:07:31.195Z,90.93
2018-11-01T04:09:58.923Z,92.02
2018-11-01T04:12:26.658Z,91.25
2018-11-01T04:14:54.444Z,90.33
2018-11-01T04:17:22.115Z,90.34
2018-11-01T04:19:49.928Z,91.71
2018-11-01T04:22:17.644Z,91.47
2018-11-01T04:24:45.352Z,91.97
2018-11-01T04:27:13.075Z,91.40
2018-11-01T04:29:40.787Z,91.07
2018-11-01T04:32:08.574Z,91.82
2018-11-01T04:34:36.290Z,91.67
2018-11-01T04:37:04.016Z,90.41
2018-11-01T04:39:31.794Z,89.84
2018-11-01T04:41:59.594Z,88.61
2018-11-01T04:44:27.320Z,88.76
2018-11-01T04:46:55.063Z,89.72
2018-11-01T04:49:22.853Z,89.71
2018-11-01T04:51:50.606Z,88.94
2018-11-01T04:54:18.325Z,89.23
2018-11-01T04:56:46.066Z,90.93
2018-11-01T04:59:13.787Z,91.04
2018-11-01T05:01:41.529Z,90.74
2018-11-01T05:04:15.982Z,90.53
2018-11-01T05:06:43.744Z,89.71
2018-11-01T05:09:11.450Z,90.52
2018-11-01T05:11:39.175Z,89.38
2018-11-01T05:14:06.891Z,89.15
2018-11-01T05:16:34.666Z,88.85
2018-11-01T05:19:02.435Z,89.39
2018-11-01T05:21:30.157Z,89.04
2018-11-01T05:24:00.455Z,89.51
2018-11-01T05:26:28.591Z,89.87
2018-11-01T05:28:56.303Z,90.62
2018-11-01T05:31:24.011Z,90.42
2018-11-01T05:33:51.723Z,90.69
2018-11-01T05:36:19.451Z,90.79
2018-11-01T05:38:47.174Z,89.84
2018-11-01T05:41:14.903Z,89.70
2018-11-01T05:43:42.624Z,89.37
2018-11-01T05:46:10.382Z,89.32
2018-11-01T05:48:38.111Z,90.01
2018-11-01T05:51:05.863Z,89.05
2018-11-01T05:53:33.583Z,89.83
2018-11-01T05:56:01.343Z,89.69
2018-11-01T05:58:29.067Z,89.12
2018-11-01T06:00:56.807Z,88.69
2018-11-01T06:03:24.527Z,88.88
2018-11-01T06:05:52.284Z,88.52
2018-11-01T06:08:22.551Z,88.35
2018-11-01T06:10:50.296Z,88.39
2018-11-01T06:13:18.041Z,88.85
2018-11-01T06:15:45.782Z,89.57
2018-11-01T06:18:13.558Z,89.54
2018-11-01T06:20:41.331Z,88.95
2018-11-01T06:23:16.195Z,89.21
2018-11-01T06:25:43.977Z,88.73
2018-11-01T06:28:11.795Z,88.78
2018-11-01T06:30:39.541Z,88.83
2018-11-01T06:33:07.305Z,88.86
2018-11-01T06:35:38.292Z,88.78
2018-11-01T06:38:06.486Z,88.85
2018-11-01T06:40:34.229Z,88.51
2018-11-01T06:43:02.399Z,88.47
2018-11-01T06:45:30.192Z,88.63
2018-11-01T06:47:57.935Z,88.06
2018-11-01T06:50:25.685Z,88.19
2018-11-01T06:52:53.427Z,87.84
2018-11-01T06:55:21.217Z,87.36
2018-11-01T06:57:49.691Z,87.14
2018-11-01T07:00:17.410Z,86.96
2018-11-01T07:02:45.154Z,86.63
2018-11-01T07:05:12.912Z,85.67
2018-11-01T07:07:40.658Z,85.75
2018-11-01T07:10:10.632Z,85.66
2018-11-01T07:12:38.378Z,85.88
2018-11-01T07:15:07.416Z,84.36
2018-11-01T07:17:35.452Z,83.74
2018-11-01T07:20:03.195Z,83.81
2018-11-01T07:22:30.918Z,83.62
2018-11-01T07:24:58.681Z,82.94
2018-11-01T07:27:26.559Z,83.24
2018-11-01T07:29:54.291Z,82.29
2018-11-01T07:32:22.071Z,81.36
2018-11-01T07:34:49.806Z,80.88
2018-11-01T07:37:17.560Z,80.30
2018-11-01T07:39:45.291Z,79.91
2018-11-01T07:42:13.023Z,79.58
2018-11-01T07:44:40.755Z,79.32
2018-11-01T07:47:08.487Z,78.76
2018-11-01T07:49:36.224Z,78.90
2018-11-01T07:52:04.062Z,78.48
2018-11-01T07:54:31.798Z,78.19
2018-11-01T07:56:59.598Z,77.98
2018-11-01T07:59:27.350Z,78.29
2018-11-01T08:01:55.089Z,77.50
2018-11-01T08:04:22.820Z,76.97
2018-11-01T08:06:50.554Z,77.35
2018-11-01T08:09:18.356Z,76.89
2018-11-01T08:11:46.173Z,76.82
2018-11-01T08:14:13.879Z,77.69
2018-11-01T08:16:41.630Z,75.85
2018-11-01T08:19:09.376Z,75.93
2018-11-01T08:21:37.110Z,75.02
2018-11-01T08:24:05.061Z,75.70
2018-11-01T08:26:32.801Z,75.77
2018-11-01T08:29:00.574Z,75.79
2018-11-01T08:31:28.328Z,75.13
2018-11-01T08:33:56.463Z,74.99
2018-11-01T08:36:24.786Z,74.03
2018-11-01T08:38:52.565Z,74.17
2018-11-01T08:41:20.307Z,73.58
2018-11-01T08:43:48.047Z,74.37
2018-11-01T08:46:15.823Z,73.67
2018-11-01T08:48:43.590Z,75.32
2018-11-01T08:51:12.257Z,75.68
2018-11-01T08:53:39.991Z,75.95
2018-11-01T08:56:07.766Z,76.20
2018-11-01T08:58:35.474Z,76.40
2018-11-01T09:01:03.235Z,76.68
2018-11-01T09:03:30.981Z,76.50
2018-11-01T09:05:58.721Z,76.85
2018-11-01T09:08:26.467Z,77.31
2018-11-01T09:10:54.205Z,76.85
2018-11-01T09:13:22.083Z,76.87
2018-11-01T09:15:49.774Z,77.09
2018-11-01T09:18:17.553Z,77.01
2018-11-01T09:20:45.282Z,77.23
2018-11-01T09:23:13.051Z,77.45
2018-11-01T09:25:40.804Z,77.77
2018-11-01T09:28:08.590Z,77.14
2018-11-01T09:30:36.366Z,76.90
2018-11-01T09:33:04.195Z,77.42
2018-11-01T09:35:31.989Z,78.00
2018-11-01T09:37:59.714Z,78.06
2018-11-01T09:40:27.459Z,77.86
2018-11-01T09:42:55.201Z,78.30
2018-11-01T09:45:22.946Z,78.47
2018-11-01T09:47:50.869Z,77.59
2018-11-01T09:50:18.530Z,78.41
2018-11-01T09:52:46.307Z,77.94
2018-11-01T09:55:14.062Z,77.37
2018-11-01T09:57:41.823Z,77.73
2018-11-01T10:00:11.174Z,77.79
2018-11-01T10:02:38.966Z,77.29
2018-11-01T10:05:07.591Z,77.10
2018-11-01T10:07:35.421Z,77.63
2018-11-01T10:10:03.424Z,77.19
2018-11-01T10:12:31.164Z,76.69
2018-11-01T10:14:58.990Z,75.72
2018-11-01T10:17:27.022Z,76.36
2018-11-01T10:19:54.487Z,76.04
2018-11-01T10:22:22.337Z,75.54
2018-11-01T10:24:50.197Z,74.90
2018-11-01T10:27:19.516Z,75.00
2018-11-01T10:29:45.684Z,73.07
2018-11-01T10:32:13.419Z,73.11
2018-11-01T10:34:41.196Z,72.63
2018-11-01T10:37:08.959Z,71.97
2018-11-01T10:39:36.679Z,71.29
2018-11-01T10:42:04.750Z,71.53
2018-11-01T10:44:32.481Z,71.45
2018-11-01T10:47:00.249Z,70.33
2018-11-01T10:49:27.995Z,70.72
2018-11-01T10:51:55.735Z,70.58
2018-11-01T10:54:23.695Z,70.80
2018-11-01T10:56:51.338Z,70.73
2018-11-01T10:59:19.195Z,70.77
2018-11-01T11:01:52.489Z,69.87
2018-11-01T11:04:20.251Z,69.98
2018-11-01T11:06:47.958Z,69.93
2018-11-01T11:09:15.695Z,70.42
2018-11-01T11:11:43.475Z,70.15
2018-11-01T11:14:11.513Z,70.28
2018-11-01T11:16:39.270Z,69.05
2018-11-01T11:19:07.031Z,69.81
2018-11-01T11:21:34.798Z,69.44
2018-11-01T11:24:02.627Z,69.50
2018-11-01T11:26:30.378Z,69.93
2018-11-01T11:28:58.246Z,70.50
2018-11-01T11:31:25.994Z,69.47
2018-11-01T11:33:54.035Z,70.02
2018-11-01T11:36:21.902Z,70.82
2018-11-01T11:38:49.670Z,70.92
2018-11-01T11:41:17.427Z,71.67
2018-11-01T11:43:45.167Z,72.13
2018-11-01T11:46:12.947Z,72.65
2018-11-01T11:48:40.726Z,72.94
2018-11-01T11:51:08.459Z,72.82
2018-11-01T11:53:36.210Z,72.41
2018-11-01T11:56:03.972Z,72.40
2018-11-01T11:58:31.710Z,72.69
2018-11-01T12:00:59.531Z,72.90
2018-11-01T12:03:27.288Z,73.30
2018-11-01T12:05:55.334Z,72.64
2018-11-01T12:08:23.034Z,72.24
2018-11-01T12:10:50.775Z,72.32
2018-11-01T12:13:18.502Z,72.48
2018-11-01T12:15:46.280Z,73.47
2018-11-01T12:18:14.026Z,72.63
2018-11-01T12:20:41.779Z,71.73
2018-11-01T12:23:09.543Z,71.64
2018-11-01T12:25:37.266Z,72.13
2018-11-01T12:28:05.222Z,71.58
2018-11-01T12:30:32.957Z,72.69
2018-11-01T12:33:00.703Z,73.82
2018-11-01T12:35:28.513Z,73.03
2018-11-01T12:37:56.251Z,73.08
2018-11-01T12:40:23.994Z,73.69
2018-11-01T12:42:51.714Z,73.59
2018-11-01T12:45:19.446Z,73.23
2018-11-01T12:47:47.176Z,72.25
2018-11-01T12:50:15.075Z,70.01
2018-11-01T12:52:42.751Z,68.30
2018-11-01T12:55:10.828Z,66.57
2018-11-01T12:57:38.611Z,66.53
2018-11-01T13:00:07.641Z,67.25
2018-11-01T13:02:35.411Z,65.82
2018-11-01T13:05:03.163Z,65.92
2018-11-01T13:07:31.002Z,66.20
2018-11-01T13:09:58.751Z,65.14
2018-11-01T13:12:27.130Z,65.72
2018-11-01T13:14:55.235Z,65.29
2018-11-01T13:17:23.541Z,65.79
2018-11-01T13:19:51.591Z,65.65
2018-11-01T13:22:19.667Z,65.84
2018-11-01T13:24:47.761Z,65.25
2018-11-01T13:27:15.861Z,64.66
2018-11-01T13:29:43.666Z,65.09
2018-11-01T13:32:11.428Z,64.63
2018-11-01T13:34:39.200Z,64.46
2018-11-01T13:37:07.022Z,65.01
2018-11-01T13:39:34.829Z,66.04
2018-11-01T13:42:02.523Z,65.22
2018-11-01T13:44:30.264Z,64.84
2018-11-01T13:46:58.055Z,64.19
2018-11-01T13:49:25.804Z,64.39
2018-11-01T13:51:53.523Z,65.60
2018-11-01T13:54:21.294Z,68.48
2018-11-01T13:56:49.076Z,70.39
2018-11-01T13:59:16.819Z,71.77
2018-11-01T14:01:44.611Z,71.75
2018-11-01T14:04:12.347Z,70.55
2018-11-01T14:06:40.080Z,68.59
2018-11-01T14:09:08.586Z,67.51
2018-11-01T14:11:36.730Z,66.88
2018-11-01T14:14:05.376Z,67.88
2018-11-01T14:16:32.810Z,67.04
2018-11-01T14:19:00.666Z,66.27
2018-11-01T14:21:28.436Z,66.09
2018-11-01T14:23:56.221Z,66.54
2018-11-01T14:26:23.940Z,66.22
2018-11-01T14:28:52.339Z,65.75
2018-11-01T14:31:20.144Z,66.44
2018-11-01T14:33:47.907Z,66.35
2018-11-01T14:36:15.626Z,66.36
2018-11-01T14:38:43.367Z,66.08
2018-11-01T14:41:11.099Z,66.79
2018-11-01T14:43:38.838Z,66.73
2018-11-01T14:46:06.602Z,67.00
2018-11-01T14:48:34.372Z,66.84
2018-11-01T14:51:02.170Z,66.90
2018-11-01T14:53:30.913Z,66.75
2018-11-01T14:55:58.930Z,66.88
2018-11-01T14:58:26.978Z,66.97
2018-11-01T15:00:53.262Z,68.13
2018-11-01T15:03:21.082Z,68.20
2018-11-01T15:05:48.842Z,70.42
2018-11-01T15:08:16.590Z,70.17
2018-11-01T15:10:44.328Z,68.86
2018-11-01T15:13:12.168Z,67.93
2018-11-01T15:15:39.856Z,66.79
2018-11-01T15:18:07.767Z,66.45
2018-11-01T15:20:35.488Z,65.53
2018-11-01T15:23:03.293Z,65.74
2018-11-01T15:25:31.083Z,65.47
2018-11-01T15:27:58.831Z,65.92
2018-11-01T15:30:26.560Z,65.63
2018-11-01T15:32:54.291Z,66.08
2018-11-01T15:35:22.067Z,65.38
2018-11-01T15:37:49.841Z,65.17
2018-11-01T15:40:17.611Z,65.07
2018-11-01T15:42:45.410Z,65.09
2018-11-01T15:45:13.958Z,65.19
2018-11-01T15:47:42.151Z,65.46
2018-11-01T15:50:10.966Z,65.95
2018-11-01T15:52:38.715Z,66.10
2018-11-01T15:55:07.233Z,66.17
2018-11-01T15:57:35.457Z,65.86
2018-11-01T16:00:03.447Z,65.64
2018-11-01T16:02:31.233Z,66.15
2018-11-01T16:04:58.994Z,65.85
2018-11-01T16:07:26.819Z,65.76
2018-11-01T16:09:54.597Z,65.77
2018-11-01T16:12:22.458Z,66.29
2018-11-01T16:14:50.186Z,66.03
2018-11-01T16:17:17.966Z,66.57
2018-11-01T16:19:45.774Z,68.77
2018-11-01T16:22:13.486Z,72.86
2018-11-01T16:24:41.225Z,74.69
2018-11-01T16:27:09.125Z,75.05
2018-11-01T16:29:36.779Z,74.89
2018-11-01T16:32:04.780Z,77.44
2018-11-01T16:34:32.559Z,77.08
2018-11-01T16:37:00.362Z,76.33
2018-11-01T16:39:28.052Z,76.63
2018-11-01T16:41:55.882Z,76.28
2018-11-01T16:44:23.597Z,75.60
2018-11-01T16:46:51.331Z,79.11
2018-11-01T16:49:19.096Z,78.10
2018-11-01T16:51:46.823Z,80.41
2018-11-01T16:54:14.632Z,78.06
2018-11-01T16:56:42.359Z,80.39
2018-11-01T16:59:10.598Z,81.76
2018-11-01T17:01:38.335Z,81.74
2018-11-01T17:04:06.491Z,80.64
2018-11-01T17:06:34.303Z,81.47
2018-11-01T17:09:02.047Z,82.12
2018-11-01T17:11:29.814Z,81.94
2018-11-01T17:13:57.570Z,81.86
2018-11-01T17:16:25.319Z,83.18
2018-11-01T17:18:54.046Z,82.94
2018-11-01T17:21:21.803Z,82.00
2018-11-01T17:23:49.547Z,83.43
2018-11-01T17:26:17.302Z,82.21
2018-11-01T17:28:45.090Z,83.63
2018-11-01T17:31:12.822Z,83.18
2018-11-01T17:33:40.547Z,84.13
2018-11-01T17:36:08.435Z,82.49
2018-11-01T17:38:36.215Z,81.84
2018-11-01T17:41:04.148Z,81.73
2018-11-01T17:43:31.912Z,82.55
2018-11-01T17:45:59.695Z,82.56
2018-11-01T17:48:27.435Z,83.04
2018-11-01T17:50:55.173Z,82.94
2018-11-01T17:53:22.926Z,82.36
2018-11-01T17:55:50.715Z,83.12
2018-11-01T17:58:18.501Z,82.53
2018-11-01T18:00:46.275Z,82.43
2018-11-01T18:03:14.141Z,82.92
2018-11-01T18:05:41.891Z,82.62
2018-11-01T18:08:09.720Z,82.21
2018-11-01T18:10:37.545Z,82.37
2018-11-01T18:13:05.526Z,82.50
2018-11-01T18:15:33.529Z,83.50
2018-11-01T18:18:01.305Z,82.60
2018-11-01T18:20:29.054Z,83.12
2018-11-01T18:22:56.817Z,83.39
2018-11-01T18:25:24.616Z,83.35
2018-11-01T18:27:52.416Z,84.12
2018-11-01T18:30:20.228Z,83.86
2018-11-01T18:32:48.197Z,85.01
2018-11-01T18:35:15.743Z,84.40
2018-11-01T18:37:43.498Z,85.78
2018-11-01T18:40:17.072Z,84.69
2018-11-01T18:42:44.855Z,86.23
2018-11-01T18:45:13.814Z,86.26
2018-11-01T18:47:42.186Z,86.83
2018-11-01T18:50:11.583Z,87.15
2018-11-01T18:52:39.483Z,86.13
2018-11-01T18:55:08.493Z,87.87
2018-11-01T18:57:36.269Z,88.18
2018-11-01T19:00:04.600Z,88.36
2018-11-01T19:02:32.331Z,88.85
2018-11-01T19:05:00.075Z,87.42
2018-11-01T19:07:27.846Z,87.93
2018-11-01T19:09:55.607Z,88.00
2018-11-01T19:12:23.391Z,88.04
2018-11-01T19:14:51.150Z,87.92
2018-11-01T19:17:18.927Z,88.94
2018-11-01T19:19:46.677Z,88.81
2018-11-01T19:22:14.440Z,88.36
2018-11-01T19:24:42.168Z,89.00
2018-11-01T19:27:10.191Z,89.42
2018-11-01T19:29:37.683Z,89.97
2018-11-01T19:32:05.790Z,91.24
2018-11-01T19:34:33.716Z,90.53
2018-11-01T19:37:01.286Z,90.87
2018-11-01T19:39:29.042Z,90.55
2018-11-01T19:41:56.770Z,90.88
2018-11-01T19:44:24.501Z,91.08
2018-11-01T19:46:52.291Z,91.56
2018-11-01T19:49:20.026Z,92.75
2018-11-01T19:51:47.783Z,91.09
2018-11-01T19:54:15.630Z,91.33
2018-11-01T19:56:43.291Z,92.21
2018-11-01T19:59:11.034Z,91.32
2018-11-01T20:01:38.915Z,91.28
2018-11-01T20:04:06.730Z,92.57
2018-11-01T20:06:34.462Z,93.71
2018-11-01T20:09:02.385Z,92.70
2018-11-01T20:11:30.062Z,93.61
2018-11-01T20:13:57.804Z,92.72
2018-11-01T20:16:25.558Z,94.24
2018-11-01T20:18:53.350Z,94.62
2018-11-01T20:21:21.170Z,93.96
2018-11-01T20:23:48.918Z,93.03
2018-11-01T20:26:16.678Z,93.27
2018-11-01T20:28:44.473Z,93.16
2018-11-01T20:31:12.245Z,94.23
2018-11-01T20:33:46.571Z,94.91
2018-11-01T20:36:14.263Z,95.22
2018-11-01T20:38:42.126Z,95.80
2018-11-01T20:41:09.809Z,95.87
2018-11-01T20:43:37.651Z,95.58
2018-11-01T20:46:05.400Z,95.20
2018-11-01T20:48:33.270Z,94.00
2018-11-01T20:51:01.006Z,94.70
2018-11-01T20:53:28.760Z,96.29
2018-11-01T20:55:56.499Z,96.54
2018-11-01T20:58:24.246Z,96.55
2018-11-01T21:00:52.174Z,97.16
2018-11-01T21:03:19.925Z,96.02
2018-11-01T21:05:47.687Z,96.22
2018-11-01T21:08:15.606Z,95.72
2018-11-01T21:10:43.418Z,96.91
2018-11-01T21:13:11.116Z,97.45
2018-11-01T21:15:38.951Z,97.29
2018-11-01T21:18:06.688Z,98.08
2018-11-01T21:20:35.000Z,97.80
2018-11-01T21:23:02.751Z,97.13
2018-11-01T21:25:30.487Z,96.09
2018-11-01T21:27:58.227Z,96.07
2018-11-01T21:30:25.974Z,94.70
2018-11-01T21:32:53.725Z,96.56
2018-11-01T21:35:21.589Z,95.89
2018-11-01T21:37:49.234Z,97.18
2018-11-01T21:40:16.975Z,97.13
2018-11-01T21:42:44.860Z,97.42
2018-11-01T21:45:13.428Z,98.31
2018-11-01T21:47:41.724Z,98.69
2018-11-01T21:50:09.974Z,99.00
2018-11-01T21:52:37.741Z,97.70
2018-11-01T21:55:06.111Z,96.49
2018-11-01T21:57:33.845Z,96.56
2018-11-01T22:00:02.404Z,97.17
2018-11-01T22:02:30.251Z,95.94
2018-11-01T22:04:57.980Z,95.93
2018-11-01T22:07:25.742Z,95.52
2018-11-01T22:09:53.646Z,94.94
2018-11-01T22:12:21.278Z,96.03
2018-11-01T22:14:49.027Z,97.48
2018-11-01T22:17:16.796Z,98.20
2018-11-01T22:19:44.535Z,99.12
2018-11-01T22:22:12.275Z,98.91
2018-11-01T22:24:40.023Z,98.34
2018-11-01T22:27:07.827Z,99.06
2018-11-01T22:29:35.598Z,100.00
2018-11-01T22:32:03.363Z,99.78
2018-11-01T22:34:31.790Z,98.88
2018-11-01T22:36:59.515Z,96.78
2018-11-01T22:39:27.277Z,96.03
2018-11-01T22:41:55.043Z,97.03
2018-11-01T22:44:22.799Z,96.67
2018-11-01T22:46:50.623Z,96.73
2018-11-01T22:49:18.404Z,96.99
2018-11-01T22:51:46.152Z,97.92
2018-11-01T22:54:13.887Z,97.34
2018-11-01T22:56:41.636Z,97.49
2018-11-01T22:59:09.503Z,98.47
2018-11-01T23:01:37.442Z,97.80
2018-11-01T23:04:05.442Z,98.21
2018-11-01T23:06:33.186Z,98.37
2018-11-01T23:09:00.929Z,97.48
2018-11-01T23:11:29.519Z,98.40
2018-11-01T23:13:57.294Z,98.12
2018-11-01T23:16:25.078Z,97.84
2018-11-01T23:18:52.862Z,99.54
2018-11-01T23:21:20.599Z,98.43
2018-11-01T23:23:48.343Z,98.55
2018-11-01T23:26:16.096Z,99.06
2018-11-01T23:28:43.873Z,99.93
2018-11-01T23:31:11.603Z,99.17
2018-11-01T23:33:39.389Z,98.37
2018-11-01T23:36:06.529Z,98.32
2018-11-01T23:38:39.816Z,97.73
2018-11-01T23:41:12.971Z,97.75
2018-11-01T23:43:46.162Z,97.33
2018-11-01T23:46:19.499Z,98.11
2018-11-01T23:48:50.071Z,98.30
2018-11-01T23:51:18.727Z,98.72
2018-11-01T23:53:48.390Z,98.76
2018-11-01T23:56:16.318Z,97.62
2018-11-01T23:58:44.111Z,97.05
